createdAt,value
2023-03-20T00:01:56.781Z,11.40
2023-03-20T00:04:26.160Z,11.88
2023-03-20T00:06:54.266Z,11.93
2023-03-20T00:09:22.471Z,12.57
2023-03-20T00:11:51.810Z,12.02
2023-03-20T00:14:24.394Z,11.80
2023-03-20T00:16:52.692Z,11.93
2023-03-20T00:19:23.357Z,10.90
2023-03-20T00:21:52.220Z,10.95
2023-03-20T00:24:20.637Z,10.68
2023-03-20T00:26:49.888Z,11.27
2023-03-20T00:29:23.292Z,11.57
2023-03-20T00:31:51.876Z,12.02
2023-03-20T00:34:22.241Z,11.55
2023-03-20T00:36:50.476Z,12.57
2023-03-20T00:39:18.400Z,14.45
2023-03-20T00:41:49.530Z,16.27
2023-03-20T00:44:23.355Z,16.55
2023-03-20T00:46:53.676Z,16.27
2023-03-20T00:49:23.990Z,15.38
2023-03-20T00:51:52.616Z,14.85
2023-03-20T00:54:20.744Z,16.10
2023-03-20T00:56:53.472Z,14.27
2023-03-20T00:59:25.054Z,15.48
2023-03-20T01:01:53.502Z,14.30
2023-03-20T01:04:22.930Z,13.18
2023-03-20T01:06:52.642Z,14.18
2023-03-20T01:09:20.855Z,14.35
2023-03-20T01:11:48.737Z,15.27
2023-03-20T01:14:18.055Z,14.85
2023-03-20T01:16:47.647Z,15.38
2023-03-20T01:19:16.941Z,16.15
2023-03-20T01:21:45.135Z,14.70
2023-03-20T01:24:12.967Z,13.98
2023-03-20T01:26:43.293Z,14.40
2023-03-20T01:29:19.062Z,13.60
2023-03-20T01:31:49.374Z,11.48
2023-03-20T01:34:19.464Z,11.25
2023-03-20T01:36:51.013Z,9.77
2023-03-20T01:39:21.713Z,9.63
2023-03-20T01:41:50.996Z,10.02
2023-03-20T01:44:22.558Z,8.80
2023-03-20T01:46:56.411Z,8.50
2023-03-20T01:50:14.174Z,8.52
2023-03-20T01:52:42.593Z,8.00
2023-03-20T01:55:10.566Z,7.70
2023-03-20T01:57:39.997Z,7.43
2023-03-20T02:00:13.798Z,7.30
2023-03-20T02:02:48.235Z,7.28
2023-03-20T02:05:40.590Z,7.10
2023-03-20T02:08:18.782Z,6.57
2023-03-20T02:10:49.161Z,6.20
2023-03-20T02:13:28.045Z,6.47
2023-03-20T02:16:03.929Z,5.82
2023-03-20T02:18:48.915Z,5.20
2023-03-20T02:21:54.970Z,5.28
2023-03-20T02:24:49.518Z,5.22
2023-03-20T02:27:25.882Z,4.88
2023-03-20T02:30:26.676Z,5.45
2023-03-20T02:33:22.975Z,5.35
2023-03-20T02:36:32.470Z,5.63
2023-03-20T02:39:09.492Z,5.32
2023-03-20T02:41:41.400Z,5.47
2023-03-20T02:44:14.233Z,5.28
2023-03-20T02:46:49.132Z,5.72
2023-03-20T02:49:32.940Z,5.35
2023-03-20T02:52:05.594Z,6.82
2023-03-20T02:54:42.245Z,6.38
2023-03-20T02:57:14.827Z,7.90
2023-03-20T02:59:47.811Z,9.67
2023-03-20T03:02:18.809Z,9.65
2023-03-20T03:04:51.028Z,9.48
2023-03-20T03:07:21.475Z,9.23
2023-03-20T03:09:55.307Z,10.70
2023-03-20T03:12:25.812Z,10.07
2023-03-20T03:14:54.906Z,8.95
2023-03-20T03:17:25.234Z,8.48
2023-03-20T03:19:55.756Z,9.45
2023-03-20T03:22:24.450Z,8.95
2023-03-20T03:24:54.988Z,8.88
2023-03-20T03:27:26.146Z,9.38
2023-03-20T03:29:56.761Z,9.13
2023-03-20T03:32:29.580Z,9.63
2023-03-20T03:34:57.855Z,9.60
2023-03-20T03:37:41.997Z,9.55
2023-03-20T03:40:18.435Z,9.60
2023-03-20T03:42:52.795Z,10.00
2023-03-20T03:45:25.456Z,10.27
2023-03-20T03:47:56.815Z,10.50
2023-03-20T03:50:27.820Z,11.20
2023-03-20T03:53:01.542Z,11.70
2023-03-20T03:55:34.526Z,13.02
2023-03-20T03:58:10.370Z,12.18
2023-03-20T04:00:39.374Z,11.57
2023-03-20T04:03:08.860Z,13.00
2023-03-20T04:05:39.279Z,11.25
2023-03-20T04:08:07.637Z,12.65
2023-03-20T04:10:37.031Z,12.98
2023-03-20T04:13:05.319Z,13.05
2023-03-20T04:15:33.792Z,12.75
2023-03-20T04:18:01.965Z,13.30
2023-03-20T04:20:30.765Z,13.73
2023-03-20T04:22:58.740Z,13.23
2023-03-20T04:25:27.919Z,13.93
2023-03-20T04:27:58.758Z,13.45
2023-03-20T04:30:36.866Z,13.57
2023-03-20T04:33:35.238Z,15.23
2023-03-20T04:36:41.939Z,14.77
2023-03-20T04:39:12.741Z,13.95
2023-03-20T04:41:40.942Z,14.60
2023-03-20T04:44:10.422Z,14.60
2023-03-20T04:46:38.774Z,14.30
2023-03-20T04:49:14.251Z,16.60
2023-03-20T04:51:42.340Z,17.33
2023-03-20T04:54:12.046Z,16.77
2023-03-20T04:56:40.031Z,16.73
2023-03-20T04:59:14.811Z,16.48
2023-03-20T05:01:42.935Z,16.83
2023-03-20T05:04:10.998Z,17.52
2023-03-20T05:06:39.354Z,17.45
2023-03-20T05:09:07.309Z,16.88
2023-03-20T05:11:37.200Z,17.05
2023-03-20T05:14:20.605Z,17.67
2023-03-20T05:17:07.195Z,15.95
2023-03-20T05:20:01.354Z,15.73
2023-03-20T05:22:55.670Z,16.88
2023-03-20T05:25:52.478Z,17.10
2023-03-20T05:28:34.885Z,16.15
2023-03-20T05:31:16.034Z,15.80
2023-03-20T05:33:58.769Z,16.58
2023-03-20T05:36:38.081Z,16.02
2023-03-20T05:39:17.970Z,15.73
2023-03-20T05:42:08.362Z,15.05
2023-03-20T05:44:48.124Z,14.27
2023-03-20T05:47:20.422Z,15.35
2023-03-20T05:50:14.979Z,15.43
2023-03-20T05:53:00.846Z,13.82
2023-03-20T05:55:41.009Z,12.90
2023-03-20T05:58:37.996Z,13.70
2023-03-20T06:01:28.228Z,13.85
2023-03-20T06:04:20.547Z,12.93
2023-03-20T06:07:07.512Z,12.25
2023-03-20T06:09:36.917Z,12.13
2023-03-20T06:12:10.053Z,12.65
2023-03-20T06:14:38.588Z,12.38
2023-03-20T06:17:09.121Z,12.60
2023-03-20T06:19:38.707Z,12.77
2023-03-20T06:22:07.492Z,12.10
2023-03-20T06:24:36.072Z,11.93
2023-03-20T06:27:04.642Z,11.93
2023-03-20T06:29:32.979Z,12.05
2023-03-20T06:32:12.673Z,12.15
2023-03-20T06:34:42.323Z,12.27
2023-03-20T06:37:10.200Z,11.75
2023-03-20T06:39:38.146Z,12.00
2023-03-20T06:42:10.831Z,11.55
2023-03-20T06:44:39.022Z,12.55
2023-03-20T06:47:36.067Z,11.63
2023-03-20T06:50:06.201Z,11.65
2023-03-20T06:52:34.261Z,12.65
2023-03-20T06:55:35.919Z,11.93
2023-03-20T06:58:04.206Z,12.18
2023-03-20T07:00:34.335Z,12.32
2023-03-20T07:03:05.823Z,11.75
2023-03-20T07:05:35.478Z,12.02
2023-03-20T07:08:07.593Z,11.95
2023-03-20T07:10:35.613Z,11.82
2023-03-20T07:13:03.598Z,11.70
2023-03-20T07:15:32.677Z,11.43
2023-03-20T07:18:00.846Z,12.70
2023-03-20T07:20:29.380Z,12.20
2023-03-20T07:22:58.976Z,11.82
2023-03-20T07:25:41.845Z,12.15
2023-03-20T07:28:12.694Z,12.27
2023-03-20T07:30:44.870Z,11.40
2023-03-20T07:33:16.974Z,11.27
2023-03-20T07:35:45.865Z,11.82
2023-03-20T07:38:15.330Z,11.65
2023-03-20T07:40:52.007Z,12.18
2023-03-20T07:43:20.132Z,12.00
2023-03-20T07:46:09.096Z,12.20
2023-03-20T07:48:39.057Z,11.35
2023-03-20T07:51:07.569Z,11.88
2023-03-20T07:53:37.148Z,12.20
2023-03-20T07:56:06.202Z,11.82
2023-03-20T07:58:34.605Z,11.48
2023-03-20T08:01:04.136Z,12.15
2023-03-20T08:03:33.107Z,10.40
2023-03-20T08:06:01.823Z,11.15
2023-03-20T08:08:30.173Z,11.10
2023-03-20T08:10:59.471Z,10.50
2023-03-20T08:13:27.545Z,9.88
2023-03-20T08:15:55.507Z,10.80
2023-03-20T08:18:23.571Z,9.88
2023-03-20T08:20:51.856Z,11.02
2023-03-20T08:23:20.931Z,10.48
2023-03-20T08:25:49.672Z,10.93
2023-03-20T08:28:19.461Z,10.20
2023-03-20T08:30:47.655Z,10.18
2023-03-20T08:33:16.414Z,9.80
2023-03-20T08:35:44.764Z,9.55
2023-03-20T08:38:14.211Z,9.48
2023-03-20T08:40:42.756Z,9.15
2023-03-20T08:43:10.914Z,8.50
2023-03-20T08:45:40.449Z,8.88
2023-03-20T08:48:08.775Z,8.88
2023-03-20T08:50:37.042Z,7.88
2023-03-20T08:53:05.405Z,8.65
2023-03-20T08:55:33.748Z,8.80
2023-03-20T08:58:01.795Z,7.95
2023-03-20T09:00:29.765Z,8.07
2023-03-20T09:02:59.022Z,7.70
2023-03-20T09:05:26.986Z,7.65
2023-03-20T09:07:55.019Z,8.00
2023-03-20T09:10:23.174Z,7.03
2023-03-20T09:12:51.236Z,7.40
2023-03-20T09:15:19.284Z,7.45
2023-03-20T09:17:47.217Z,7.90
2023-03-20T09:20:16.995Z,7.93
2023-03-20T09:22:45.582Z,7.10
2023-03-20T09:25:14.272Z,6.38
2023-03-20T09:27:42.242Z,6.68
2023-03-20T09:30:11.810Z,7.15
2023-03-20T09:32:40.081Z,6.72
2023-03-20T09:35:08.892Z,6.63
2023-03-20T09:37:38.096Z,6.07
2023-03-20T09:40:07.339Z,6.63
2023-03-20T09:42:44.071Z,7.18
2023-03-20T09:45:16.354Z,6.55
2023-03-20T09:47:53.651Z,6.50
2023-03-20T09:50:28.647Z,6.65
2023-03-20T09:53:07.307Z,6.65
2023-03-20T09:55:37.200Z,6.75
2023-03-20T09:58:11.735Z,6.43
2023-03-20T10:00:42.054Z,7.15
2023-03-20T10:03:18.317Z,6.50
2023-03-20T10:05:48.631Z,5.72
2023-03-20T10:08:22.448Z,6.72
2023-03-20T10:10:52.697Z,5.20
2023-03-20T10:13:39.425Z,5.43
2023-03-20T10:16:16.419Z,5.38
2023-03-20T10:18:49.142Z,5.57
2023-03-20T10:21:19.191Z,4.65
2023-03-20T10:23:56.526Z,4.88
2023-03-20T10:26:25.453Z,5.03
2023-03-20T10:28:57.617Z,5.57
2023-03-20T10:31:37.536Z,5.20
2023-03-20T10:34:17.939Z,4.30
2023-03-20T10:36:59.638Z,5.00
2023-03-20T10:39:39.057Z,4.68
2023-03-20T10:42:15.122Z,4.35
2023-03-20T10:44:46.366Z,4.38
2023-03-20T10:47:17.256Z,4.63
2023-03-20T10:49:50.048Z,4.10
2023-03-20T10:52:22.657Z,4.80
2023-03-20T10:54:56.850Z,4.32
2023-03-20T10:57:26.696Z,4.90
2023-03-20T10:59:56.146Z,4.50
2023-03-20T11:02:27.442Z,4.50
2023-03-20T11:04:55.417Z,4.53
2023-03-20T11:07:25.588Z,4.50
2023-03-20T11:12:48.065Z,4.75
2023-03-20T11:15:22.245Z,4.65
2023-03-20T11:17:57.928Z,5.22
2023-03-20T11:20:26.662Z,4.85
2023-03-20T11:23:00.195Z,5.57
2023-03-20T11:25:32.209Z,5.13
2023-03-20T11:28:22.616Z,4.95
2023-03-20T11:31:03.961Z,4.97
2023-03-20T11:33:33.715Z,5.10
2023-03-20T11:36:01.751Z,5.78
2023-03-20T11:38:31.700Z,5.10
2023-03-20T11:40:59.622Z,5.50
2023-03-20T11:43:29.547Z,5.55
2023-03-20T11:45:58.849Z,5.60
2023-03-20T11:48:28.737Z,6.20
2023-03-20T11:51:02.005Z,5.50
2023-03-20T11:53:31.648Z,6.33
2023-03-20T11:56:11.990Z,5.88
2023-03-20T11:58:52.198Z,5.90
2023-03-20T12:01:22.220Z,5.47
2023-03-20T12:03:55.579Z,6.38
2023-03-20T12:06:25.002Z,6.53
2023-03-20T12:08:56.592Z,6.55
2023-03-20T12:11:39.513Z,6.10
2023-03-20T12:14:17.206Z,6.50
2023-03-20T12:16:45.897Z,6.72
2023-03-20T12:19:18.173Z,6.20
2023-03-20T12:21:48.538Z,7.72
2023-03-20T12:24:22.957Z,6.55
2023-03-20T12:26:55.589Z,6.88
2023-03-20T12:29:29.705Z,7.00
2023-03-20T12:32:01.190Z,7.32
2023-03-20T12:34:33.251Z,6.68
2023-03-20T12:37:01.541Z,6.65
2023-03-20T12:39:34.403Z,7.68
2023-03-20T12:42:10.932Z,6.88
2023-03-20T12:44:42.975Z,6.85
2023-03-20T12:47:18.783Z,8.32
2023-03-20T12:49:52.278Z,7.03
2023-03-20T12:52:27.927Z,7.55
2023-03-20T12:55:17.964Z,8.18
2023-03-20T12:57:54.379Z,7.47
2023-03-20T13:00:29.052Z,8.25
2023-03-20T13:03:06.258Z,8.52
2023-03-20T13:05:41.821Z,8.05
2023-03-20T13:08:19.610Z,8.60
2023-03-20T13:10:53.853Z,8.10
2023-03-20T13:13:29.478Z,9.10
2023-03-20T13:16:09.174Z,8.23
2023-03-20T13:18:46.689Z,8.55
2023-03-20T13:21:18.369Z,8.18
2023-03-20T13:23:51.252Z,8.07
2023-03-20T13:26:27.905Z,9.48
2023-03-20T13:29:00.431Z,8.52
2023-03-20T13:31:38.124Z,8.45
2023-03-20T13:34:14.424Z,7.72
2023-03-20T13:36:53.122Z,9.85
2023-03-20T13:39:25.862Z,9.38
2023-03-20T13:41:54.855Z,9.05
2023-03-20T13:44:24.433Z,8.65
2023-03-20T13:46:56.754Z,9.57
2023-03-20T13:49:28.824Z,8.45
2023-03-20T13:51:59.305Z,8.35
2023-03-20T13:54:39.410Z,10.65
2023-03-20T13:57:13.220Z,9.40
2023-03-20T13:59:50.833Z,10.07
2023-03-20T14:02:41.179Z,9.00
2023-03-20T14:05:13.779Z,8.82
2023-03-20T14:07:44.913Z,8.98
2023-03-20T14:10:36.083Z,7.50
2023-03-20T14:13:07.555Z,8.90
2023-03-20T14:15:37.210Z,9.45
2023-03-20T14:18:08.515Z,9.40
2023-03-20T14:20:38.963Z,9.00
2023-03-20T14:23:07.466Z,9.25
2023-03-20T14:25:40.429Z,9.05
2023-03-20T14:28:24.670Z,9.20
2023-03-20T14:30:52.764Z,9.63
2023-03-20T14:33:32.329Z,15.60
2023-03-20T14:36:20.538Z,10.18
2023-03-20T14:38:56.260Z,9.38
2023-03-20T14:41:28.530Z,8.80
2023-03-20T14:44:04.440Z,9.70
2023-03-20T14:46:42.205Z,8.95
2023-03-20T14:49:41.470Z,9.27
2023-03-20T14:52:20.016Z,8.13
2023-03-20T14:54:53.357Z,8.32
2023-03-20T14:57:29.307Z,8.15
2023-03-20T14:59:57.229Z,7.10
2023-03-20T15:02:27.060Z,7.93
2023-03-20T15:04:57.413Z,7.05
2023-03-20T15:07:27.682Z,8.05
2023-03-20T15:09:59.246Z,8.10
2023-03-20T15:12:28.595Z,8.52
2023-03-20T15:14:58.445Z,7.80
2023-03-20T15:17:28.573Z,7.45
2023-03-20T15:20:08.242Z,8.93
2023-03-20T15:22:36.099Z,7.70
2023-03-20T15:25:04.375Z,7.72
2023-03-20T15:27:32.374Z,8.18
2023-03-20T15:30:01.493Z,7.22
2023-03-20T15:32:30.090Z,8.10
2023-03-20T15:34:58.183Z,8.27
2023-03-20T15:37:28.253Z,8.43
2023-03-20T15:39:59.103Z,8.23
2023-03-20T15:42:27.875Z,8.13
2023-03-20T15:44:56.912Z,8.10
2023-03-20T15:47:25.946Z,7.65
2023-03-20T15:49:54.874Z,8.88
2023-03-20T15:52:30.501Z,8.63
2023-03-20T15:54:59.979Z,9.73
2023-03-20T15:57:35.566Z,9.23
2023-03-20T16:00:06.039Z,17.42
2023-03-20T16:02:34.621Z,18.67
2023-03-20T16:05:02.679Z,12.07
2023-03-20T16:07:33.766Z,12.38
2023-03-20T16:10:02.020Z,18.40
2023-03-20T16:12:29.836Z,17.17
2023-03-20T16:14:59.252Z,13.73
2023-03-20T16:17:27.737Z,12.02
2023-03-20T16:19:56.210Z,9.65
2023-03-20T16:22:26.498Z,10.68
2023-03-20T16:24:58.347Z,8.77
2023-03-20T16:27:28.993Z,9.40
2023-03-20T16:29:57.445Z,9.60
2023-03-20T16:32:33.148Z,9.15
2023-03-20T16:35:03.561Z,9.82
2023-03-20T16:37:33.482Z,8.55
2023-03-20T16:40:16.462Z,8.90
2023-03-20T16:42:45.575Z,8.98
2023-03-20T16:45:21.742Z,8.52
2023-03-20T16:47:50.428Z,9.05
2023-03-20T16:50:21.190Z,9.48
2023-03-20T16:52:51.850Z,9.20
2023-03-20T16:55:25.675Z,9.88
2023-03-20T16:57:56.597Z,9.52
2023-03-20T17:00:28.788Z,10.05
2023-03-20T17:03:07.126Z,9.60
2023-03-20T17:05:46.936Z,9.85
2023-03-20T17:08:20.259Z,10.15
2023-03-20T17:10:52.310Z,9.50
2023-03-20T17:13:20.382Z,9.85
2023-03-20T17:15:48.330Z,9.88
2023-03-20T17:18:16.463Z,10.10
2023-03-20T17:20:44.277Z,9.77
2023-03-20T17:23:14.851Z,10.40
2023-03-20T17:25:43.085Z,10.63
2023-03-20T17:28:20.100Z,10.15
2023-03-20T17:30:49.613Z,11.35
2023-03-20T17:33:19.108Z,11.52
2023-03-20T17:35:47.829Z,11.55
2023-03-20T17:38:21.499Z,11.77
2023-03-20T17:40:49.892Z,12.07
2023-03-20T17:43:19.814Z,12.80
2023-03-20T17:45:48.522Z,11.18
2023-03-20T17:48:18.148Z,11.20
2023-03-20T17:50:46.381Z,9.75
2023-03-20T17:53:18.952Z,11.02
2023-03-20T17:55:46.817Z,12.23
2023-03-20T17:58:21.755Z,11.77
2023-03-20T18:00:50.046Z,11.77
2023-03-20T18:03:18.251Z,10.65
2023-03-20T18:05:46.944Z,11.07
2023-03-20T18:08:16.820Z,11.30
2023-03-20T18:10:45.174Z,10.73
2023-03-20T18:13:13.264Z,11.40
2023-03-20T18:15:44.232Z,11.20
2023-03-20T18:18:12.374Z,11.15
2023-03-20T18:20:41.273Z,12.02
2023-03-20T18:23:09.805Z,11.15
2023-03-20T18:25:37.686Z,12.32
2023-03-20T18:28:06.908Z,12.35
2023-03-20T18:30:36.498Z,11.73
2023-03-20T18:33:06.905Z,12.43
2023-03-20T18:35:35.363Z,12.82
2023-03-20T18:38:14.030Z,12.65
2023-03-20T18:40:50.043Z,12.75
2023-03-20T18:43:18.064Z,13.02
2023-03-20T18:45:45.869Z,13.05
2023-03-20T18:48:15.228Z,14.75
2023-03-20T18:50:43.646Z,14.02
2023-03-20T18:53:11.766Z,14.27
2023-03-20T18:55:39.730Z,15.23
2023-03-20T18:58:09.088Z,14.77
2023-03-20T19:00:40.279Z,15.35
2023-03-20T19:03:09.166Z,15.73
2023-03-20T19:05:38.439Z,15.60
2023-03-20T19:08:06.797Z,14.95
2023-03-20T19:10:37.312Z,16.88
2023-03-20T19:13:06.541Z,15.65
2023-03-20T19:15:36.306Z,16.88
2023-03-20T19:18:05.151Z,15.70
2023-03-20T19:20:37.122Z,15.98
2023-03-20T19:23:07.694Z,16.27
2023-03-20T19:25:36.507Z,17.42
2023-03-20T19:28:05.390Z,16.48
2023-03-20T19:30:34.557Z,16.85
2023-03-20T19:33:03.039Z,17.55
2023-03-20T19:35:54.516Z,18.13
2023-03-20T19:38:22.571Z,18.20
2023-03-20T19:40:53.273Z,17.08
2023-03-20T19:43:21.598Z,17.13
2023-03-20T19:45:51.909Z,17.25
2023-03-20T19:48:21.791Z,17.27
2023-03-20T19:50:51.135Z,18.92
2023-03-20T19:53:24.953Z,18.50
2023-03-20T19:55:53.189Z,19.17
2023-03-20T19:58:21.625Z,18.70
2023-03-20T20:00:59.429Z,17.92
2023-03-20T20:03:29.111Z,19.02
2023-03-20T20:05:57.094Z,19.88
2023-03-20T20:08:43.456Z,19.40
2023-03-20T20:11:15.625Z,18.80
2023-03-20T20:16:32.658Z,19.77
2023-03-20T20:19:00.505Z,21.33
2023-03-20T20:24:18.572Z,19.00
2023-03-20T20:26:54.189Z,20.90
2023-03-20T20:29:24.599Z,20.67
2023-03-20T20:31:52.406Z,20.42
2023-03-20T20:39:57.887Z,19.80
2023-03-20T20:42:25.886Z,19.05
2023-03-20T20:44:53.844Z,21.10
2023-03-20T20:47:21.887Z,20.88
2023-03-20T20:49:49.839Z,21.45
2023-03-20T20:52:17.676Z,23.45
2023-03-20T20:54:45.666Z,22.85
2023-03-20T20:57:15.289Z,22.40
2023-03-20T20:59:43.023Z,22.88
2023-03-20T21:02:12.100Z,23.77
2023-03-20T21:04:41.259Z,23.48
2023-03-20T21:07:11.685Z,23.58
2023-03-20T21:09:39.967Z,22.52
2023-03-20T21:12:10.398Z,24.05
2023-03-20T21:14:39.969Z,25.23
2023-03-20T21:17:09.289Z,25.25
2023-03-20T21:19:38.698Z,23.70
2023-03-20T21:22:07.835Z,25.33
2023-03-20T21:24:36.161Z,26.60
2023-03-20T21:27:05.612Z,26.05
2023-03-20T21:29:33.548Z,25.77
2023-03-20T21:32:02.843Z,25.30
2023-03-20T21:34:30.721Z,25.05
2023-03-20T21:37:00.066Z,25.60
2023-03-20T21:39:30.457Z,26.13
2023-03-20T21:41:58.643Z,27.08
2023-03-20T21:53:25.786Z,26.23
2023-03-20T21:56:40.143Z,27.35
2023-03-20T22:05:09.349Z,26.52
2023-03-20T22:10:26.644Z,26.80
2023-03-20T22:16:12.916Z,24.60
2023-03-20T22:21:55.999Z,25.58
2023-03-20T22:27:26.978Z,26.00
2023-03-20T22:33:03.560Z,26.83
2023-03-20T22:36:02.873Z,27.13
2023-03-20T22:44:24.750Z,24.10
2023-03-20T22:46:43.916Z,23.95
2023-03-20T22:49:02.917Z,24.58
2023-03-20T22:51:36.896Z,23.60
2023-03-20T22:54:10.338Z,23.23
2023-03-20T22:56:38.116Z,23.30
2023-03-20T22:59:06.969Z,23.38
2023-03-20T23:01:34.796Z,23.30
2023-03-20T23:04:02.827Z,22.27
2023-03-20T23:06:30.795Z,22.48
2023-03-20T23:09:03.249Z,22.65
2023-03-20T23:11:35.333Z,22.33
2023-03-20T23:14:03.828Z,22.52
2023-03-20T23:16:33.829Z,22.25
2023-03-20T23:19:01.619Z,22.63
2023-03-20T23:21:29.591Z,21.40
2023-03-20T23:23:57.544Z,22.77
2023-03-20T23:26:25.693Z,22.83
2023-03-20T23:28:54.788Z,22.13
2023-03-20T23:31:24.700Z,21.80
2023-03-20T23:33:54.636Z,21.48
2023-03-20T23:36:35.295Z,21.58
2023-03-20T23:39:03.801Z,20.75
2023-03-20T23:41:58.018Z,21.88
2023-03-20T23:44:21.204Z,20.10
2023-03-20T23:46:49.206Z,21.15
2023-03-20T23:49:17.510Z,20.25
2023-03-20T23:51:45.604Z,20.55
2023-03-20T23:54:13.839Z,21.90
2023-03-20T23:56:41.728Z,22.23
2023-03-20T23:59:20.565Z,20.48
